createdAt,value
2022-07-29T00:00:55.812Z,100786.98
2022-07-29T00:03:28.482Z,100786.87
2022-07-29T00:06:02.511Z,100789.14
2022-07-29T00:08:35.379Z,100792.55
2022-07-29T00:11:29.478Z,100793.84
2022-07-29T00:14:02.905Z,100795.57
2022-07-29T00:16:35.583Z,100795.31
2022-07-29T00:19:08.391Z,100797.89
2022-07-29T00:21:40.913Z,100800.84
2022-07-29T00:24:13.995Z,100800.10
2022-07-29T00:26:46.897Z,100803.77
2022-07-29T00:29:35.212Z,100800.64
2022-07-29T00:32:08.944Z,100802.33
2022-07-29T00:34:59.465Z,100802.90
2022-07-29T00:37:32.635Z,100804.14
2022-07-29T00:40:05.606Z,100804.75
2022-07-29T00:42:47.723Z,100804.98
2022-07-29T00:45:21.313Z,100805.38
2022-07-29T00:47:53.839Z,100803.75
2022-07-29T00:50:26.947Z,100803.31
2022-07-29T00:52:59.529Z,100803.13
2022-07-29T00:55:33.387Z,100802.95
2022-07-29T00:58:06.270Z,100803.07
2022-07-29T01:00:39.253Z,100804.27
2022-07-29T01:03:12.129Z,100805.82
2022-07-29T01:05:51.559Z,100807.81
2022-07-29T01:08:26.070Z,100810.52
2022-07-29T01:10:59.388Z,100808.73
2022-07-29T01:13:34.844Z,100813.76
2022-07-29T01:16:15.452Z,100814.47
2022-07-29T01:18:52.705Z,100815.08
2022-07-29T01:21:50.302Z,100812.70
2022-07-29T01:24:42.423Z,100812.02
2022-07-29T01:27:35.767Z,100810.73
2022-07-29T01:30:10.259Z,100807.16
2022-07-29T01:32:49.530Z,100802.93
2022-07-29T01:35:26.047Z,100804.73
2022-07-29T01:38:04.377Z,100800.20
2022-07-29T01:40:43.129Z,100797.69
2022-07-29T01:43:19.796Z,100798.52
2022-07-29T01:46:00.730Z,100792.80
2022-07-29T01:48:41.816Z,100787.80
2022-07-29T01:51:19.160Z,100783.74
2022-07-29T01:53:56.694Z,100789.66
2022-07-29T01:56:33.823Z,100779.25
2022-07-29T01:59:10.904Z,100781.77
2022-07-29T02:01:46.355Z,100783.48
2022-07-29T02:04:29.941Z,100782.95
2022-07-29T02:07:08.184Z,100787.16
2022-07-29T02:09:43.276Z,100789.35
2022-07-29T02:12:17.468Z,100791.34
2022-07-29T02:14:53.214Z,100790.20
2022-07-29T02:17:29.914Z,100789.14
2022-07-29T02:20:06.183Z,100792.86
2022-07-29T02:22:42.032Z,100785.34
2022-07-29T02:25:16.012Z,100784.67
2022-07-29T02:27:52.492Z,100787.91
2022-07-29T02:30:26.687Z,100787.80
2022-07-29T02:33:01.103Z,100785.11
2022-07-29T02:35:34.961Z,100786.15
2022-07-29T02:38:26.357Z,100783.64
2022-07-29T02:41:02.660Z,100780.16
2022-07-29T02:43:36.736Z,100782.73
2022-07-29T02:46:29.524Z,100786.44
2022-07-29T02:49:09.587Z,100789.34
2022-07-29T02:51:49.382Z,100792.85
2022-07-29T02:54:29.422Z,100797.48
2022-07-29T02:57:06.284Z,100791.75
2022-07-29T02:59:43.257Z,100789.32
2022-07-29T03:02:18.251Z,100783.20
2022-07-29T03:04:53.317Z,100779.52
2022-07-29T03:07:27.031Z,100778.77
2022-07-29T03:10:02.807Z,100779.45
2022-07-29T03:12:36.121Z,100781.05
2022-07-29T03:15:11.214Z,100780.65
2022-07-29T03:17:44.596Z,100789.33
2022-07-29T03:20:17.836Z,100794.73
2022-07-29T03:22:51.028Z,100800.95
2022-07-29T03:25:24.469Z,100802.67
2022-07-29T03:27:59.363Z,100802.46
2022-07-29T03:30:32.293Z,100804.42
2022-07-29T03:33:04.800Z,100812.02
2022-07-29T03:35:46.504Z,100808.49
2022-07-29T03:38:19.055Z,100812.85
2022-07-29T03:40:56.684Z,100811.52
2022-07-29T03:43:31.473Z,100812.23
2022-07-29T03:46:08.758Z,100812.56
2022-07-29T03:48:46.177Z,100815.95
2022-07-29T03:51:18.898Z,100824.96
2022-07-29T03:54:10.174Z,100830.62
2022-07-29T03:56:47.340Z,100834.98
2022-07-29T03:59:22.614Z,100836.02
2022-07-29T04:01:56.574Z,100831.34
2022-07-29T04:04:29.506Z,100833.10
2022-07-29T04:07:02.078Z,100834.40
2022-07-29T04:09:34.935Z,100832.88
2022-07-29T04:12:09.801Z,100832.13
2022-07-29T04:14:42.640Z,100830.77
2022-07-29T04:17:16.779Z,100835.00
2022-07-29T04:19:49.333Z,100832.81
2022-07-29T04:22:21.979Z,100833.98
2022-07-29T04:24:57.107Z,100837.06
2022-07-29T04:27:33.090Z,100837.20
2022-07-29T04:30:06.367Z,100837.02
2022-07-29T04:32:38.943Z,100838.35
2022-07-29T04:35:12.257Z,100838.73
2022-07-29T04:37:48.677Z,100834.64
2022-07-29T04:40:21.886Z,100836.02
2022-07-29T04:42:54.500Z,100833.84
2022-07-29T04:45:28.268Z,100835.74
2022-07-29T04:48:00.824Z,100835.80
2022-07-29T04:50:33.743Z,100841.60
2022-07-29T04:53:06.587Z,100841.00
2022-07-29T04:55:39.892Z,100842.80
2022-07-29T04:58:12.800Z,100840.14
2022-07-29T05:00:46.339Z,100840.60
2022-07-29T05:03:19.757Z,100847.20
2022-07-29T05:05:55.104Z,100845.73
2022-07-29T05:08:28.897Z,100845.92
2022-07-29T05:11:21.023Z,100845.71
2022-07-29T05:13:59.518Z,100844.42
2022-07-29T05:16:45.401Z,100848.02
2022-07-29T05:19:20.271Z,100846.50
2022-07-29T05:21:59.805Z,100851.04
2022-07-29T05:24:33.023Z,100852.41
2022-07-29T05:27:09.255Z,100860.50
2022-07-29T05:29:45.834Z,100858.33
2022-07-29T05:32:19.297Z,100859.66
2022-07-29T05:34:52.068Z,100860.86
2022-07-29T05:37:25.077Z,100862.63
2022-07-29T05:39:57.618Z,100864.90
2022-07-29T05:42:32.348Z,100865.27
2022-07-29T05:45:05.289Z,100865.89
2022-07-29T05:47:37.879Z,100867.36
2022-07-29T05:50:11.748Z,100867.64
2022-07-29T05:52:44.344Z,100868.89
2022-07-29T05:55:17.176Z,100867.45
2022-07-29T05:57:49.805Z,100865.98
2022-07-29T06:00:22.177Z,100867.45
2022-07-29T06:02:54.840Z,100868.56
2022-07-29T06:05:27.386Z,100868.89
2022-07-29T06:08:00.124Z,100873.52
2022-07-29T06:10:32.648Z,100871.23
2022-07-29T06:13:05.840Z,100867.76
2022-07-29T06:15:38.670Z,100868.98
2022-07-29T06:18:12.005Z,100867.77
2022-07-29T06:20:44.775Z,100866.72
2022-07-29T06:23:17.533Z,100866.19
2022-07-29T06:25:50.531Z,100864.37
2022-07-29T06:28:24.330Z,100861.46
2022-07-29T06:30:56.802Z,100865.27
2022-07-29T06:33:29.461Z,100859.95
2022-07-29T06:36:02.127Z,100859.41
2022-07-29T06:38:42.092Z,100863.27
2022-07-29T06:41:18.212Z,100862.26
2022-07-29T06:43:55.189Z,100860.47
2022-07-29T06:46:30.090Z,100860.17
2022-07-29T06:49:03.707Z,100860.40
2022-07-29T06:51:36.278Z,100856.95
2022-07-29T06:54:08.943Z,100854.67
2022-07-29T06:56:43.304Z,100853.68
2022-07-29T06:59:16.762Z,100850.20
2022-07-29T07:01:49.336Z,100851.81
2022-07-29T07:04:21.992Z,100850.44
2022-07-29T07:06:56.781Z,100848.16
2022-07-29T07:09:39.971Z,100850.00
2022-07-29T07:12:13.529Z,100851.30
2022-07-29T07:14:46.072Z,100848.97
2022-07-29T07:17:18.580Z,100849.02
2022-07-29T07:19:51.016Z,100848.08
2022-07-29T07:22:23.525Z,100840.77
2022-07-29T07:24:55.928Z,100840.84
2022-07-29T07:27:29.565Z,100842.51
2022-07-29T07:30:01.876Z,100842.23
2022-07-29T07:32:37.511Z,100841.74
2022-07-29T07:35:12.635Z,100839.11
2022-07-29T07:37:45.272Z,100839.48
2022-07-29T07:40:18.979Z,100838.02
2022-07-29T07:42:51.516Z,100839.33
2022-07-29T07:45:24.280Z,100843.60
2022-07-29T07:47:56.682Z,100842.36
2022-07-29T07:50:30.172Z,100845.38
2022-07-29T07:53:03.294Z,100846.98
2022-07-29T07:56:00.385Z,100846.55
2022-07-29T07:58:28.684Z,100845.81
2022-07-29T08:01:01.306Z,100846.13
2022-07-29T08:03:33.858Z,100851.23
2022-07-29T08:06:07.119Z,100850.39
2022-07-29T08:08:39.462Z,100853.95
2022-07-29T08:11:11.934Z,100851.06
2022-07-29T08:13:44.619Z,100851.87
2022-07-29T08:16:17.383Z,100852.90
2022-07-29T08:18:50.302Z,100855.66
2022-07-29T08:21:22.931Z,100851.75
2022-07-29T08:24:15.954Z,100850.78
2022-07-29T08:26:48.676Z,100849.77
2022-07-29T08:29:21.397Z,100847.64
2022-07-29T08:31:54.336Z,100847.83
2022-07-29T08:34:27.666Z,100841.30
2022-07-29T08:37:00.690Z,100841.42
2022-07-29T08:39:33.086Z,100837.23
2022-07-29T08:42:05.827Z,100838.11
2022-07-29T08:44:39.388Z,100840.27
2022-07-29T08:47:12.842Z,100832.84
2022-07-29T08:49:46.494Z,100831.08
2022-07-29T08:52:20.813Z,100826.98
2022-07-29T08:54:54.565Z,100824.63
2022-07-29T08:57:29.854Z,100823.00
2022-07-29T09:00:08.195Z,100821.89
2022-07-29T09:02:50.905Z,100816.48
2022-07-29T09:05:24.922Z,100821.40
2022-07-29T09:07:57.774Z,100825.91
2022-07-29T09:10:31.298Z,100821.02
2022-07-29T09:13:04.081Z,100820.02
2022-07-29T09:15:36.761Z,100819.48
2022-07-29T09:18:28.910Z,100819.16
2022-07-29T09:21:19.839Z,100817.30
2022-07-29T09:24:07.759Z,100815.29
2022-07-29T09:26:42.023Z,100818.05
2022-07-29T09:29:16.042Z,100816.21
2022-07-29T09:31:50.188Z,100817.06
2022-07-29T09:34:26.580Z,100817.15
2022-07-29T09:36:59.879Z,100821.89
2022-07-29T09:39:34.085Z,100816.06
2022-07-29T09:42:08.618Z,100812.34
2022-07-29T09:44:49.797Z,100811.30
2022-07-29T09:47:27.085Z,100809.63
2022-07-29T09:49:59.484Z,100809.39
2022-07-29T09:52:32.812Z,100805.88
2022-07-29T09:55:18.457Z,100803.67
2022-07-29T09:57:52.510Z,100800.58
2022-07-29T10:00:26.361Z,100795.02
2022-07-29T10:03:04.373Z,100794.27
2022-07-29T10:05:37.113Z,100798.80
2022-07-29T10:08:10.808Z,100799.39
2022-07-29T10:10:45.736Z,100799.11
2022-07-29T10:13:18.531Z,100794.70
2022-07-29T10:15:52.309Z,100788.48
2022-07-29T10:18:25.335Z,100788.16
2022-07-29T10:20:58.491Z,100789.80
2022-07-29T10:23:47.037Z,100787.71
2022-07-29T10:26:21.513Z,100782.99
2022-07-29T10:28:53.907Z,100779.96
2022-07-29T10:31:34.761Z,100781.70
2022-07-29T10:34:17.081Z,100778.73
2022-07-29T10:37:00.314Z,100771.48
2022-07-29T10:39:50.121Z,100767.04
2022-07-29T10:45:21.126Z,100757.72
2022-07-29T10:48:08.942Z,100748.04
2022-07-29T10:51:04.167Z,100750.14
2022-07-29T10:53:54.492Z,100749.52
2022-07-29T10:56:35.546Z,100749.81
2022-07-29T10:59:32.428Z,100741.77
2022-07-29T11:02:52.379Z,100737.74
2022-07-29T11:05:32.215Z,100737.05
2022-07-29T11:08:27.651Z,100731.44
2022-07-29T11:11:38.038Z,100723.50
2022-07-29T11:14:10.664Z,100723.03
2022-07-29T11:17:06.220Z,100720.10
2022-07-29T11:19:45.688Z,100719.15
2022-07-29T11:22:36.285Z,100714.00
2022-07-29T11:25:18.992Z,100713.73
2022-07-29T11:28:22.956Z,100712.65
2022-07-29T11:30:58.175Z,100712.52
2022-07-29T11:33:37.571Z,100709.21
2022-07-29T11:36:28.254Z,100705.75
2022-07-29T11:39:36.450Z,100705.12
2022-07-29T11:42:55.048Z,100699.77
2022-07-29T11:45:47.205Z,100697.14
2022-07-29T11:48:28.774Z,100696.89
2022-07-29T11:51:13.302Z,100689.20
2022-07-29T11:53:52.826Z,100686.94
2022-07-29T11:56:28.756Z,100678.65
2022-07-29T11:59:08.471Z,100675.14
2022-07-29T12:02:18.340Z,100676.42
2022-07-29T12:04:55.286Z,100678.91
2022-07-29T12:07:33.857Z,100677.35
2022-07-29T12:10:11.371Z,100675.40
2022-07-29T12:12:56.542Z,100674.93
2022-07-29T12:15:46.039Z,100665.11
2022-07-29T12:18:24.343Z,100655.26
2022-07-29T12:21:03.308Z,100651.40
2022-07-29T12:23:36.760Z,100649.59
2022-07-29T12:26:10.991Z,100642.41
2022-07-29T12:28:54.720Z,100639.98
2022-07-29T12:31:43.684Z,100638.76
2022-07-29T12:34:19.214Z,100634.76
2022-07-29T12:36:52.527Z,100634.87
2022-07-29T12:39:27.641Z,100629.02
2022-07-29T12:42:03.942Z,100626.23
2022-07-29T12:48:39.441Z,100613.48
2022-07-29T12:51:15.593Z,100608.48
2022-07-29T12:54:06.193Z,100601.23
2022-07-29T12:56:43.614Z,100597.68
2022-07-29T12:59:19.623Z,100594.58
2022-07-29T13:01:54.787Z,100590.79
2022-07-29T13:04:32.852Z,100589.40
2022-07-29T13:07:09.151Z,100588.89
2022-07-29T13:09:44.953Z,100582.56
2022-07-29T13:12:17.844Z,100582.64
2022-07-29T13:14:51.718Z,100585.57
2022-07-29T13:17:32.745Z,100580.40
2022-07-29T13:20:13.876Z,100577.54
2022-07-29T13:22:49.734Z,100577.53
2022-07-29T13:25:34.939Z,100571.59
2022-07-29T13:28:07.557Z,100570.27
2022-07-29T13:30:44.597Z,100568.92
2022-07-29T13:33:18.251Z,100569.33
2022-07-29T13:35:54.749Z,100565.55
2022-07-29T13:38:31.145Z,100572.09
2022-07-29T13:41:05.351Z,100574.45
2022-07-29T13:43:38.161Z,100579.25
2022-07-29T13:46:10.789Z,100571.70
2022-07-29T13:48:43.291Z,100565.01
2022-07-29T13:51:15.956Z,100565.27
2022-07-29T13:53:48.335Z,100558.61
2022-07-29T13:56:20.841Z,100565.16
2022-07-29T13:58:53.383Z,100562.70
2022-07-29T14:01:26.540Z,100565.90
2022-07-29T14:03:59.304Z,100563.30
2022-07-29T14:06:32.161Z,100559.08
2022-07-29T14:09:07.261Z,100563.27
2022-07-29T14:11:40.043Z,100566.50
2022-07-29T14:14:12.435Z,100571.85
2022-07-29T14:16:47.598Z,100573.20
2022-07-29T14:19:23.794Z,100573.27
2022-07-29T14:21:56.507Z,100572.85
2022-07-29T14:24:30.737Z,100567.78
2022-07-29T14:27:05.058Z,100564.50
2022-07-29T14:29:38.878Z,100559.61
2022-07-29T14:32:16.127Z,100563.17
2022-07-29T14:34:48.628Z,100560.96
2022-07-29T14:37:21.135Z,100560.66
2022-07-29T14:39:53.476Z,100553.66
2022-07-29T14:42:26.372Z,100545.82
2022-07-29T14:44:58.866Z,100550.20
2022-07-29T14:47:31.176Z,100550.88
2022-07-29T14:50:04.075Z,100548.36
2022-07-29T14:52:36.919Z,100544.16
2022-07-29T14:55:16.290Z,100538.89
2022-07-29T14:57:51.113Z,100536.09
2022-07-29T15:00:25.652Z,100532.70
2022-07-29T15:03:02.762Z,100532.56
2022-07-29T15:09:20.625Z,100534.21
2022-07-29T15:11:53.824Z,100532.17
2022-07-29T15:14:26.409Z,100533.63
2022-07-29T15:16:58.876Z,100529.83
2022-07-29T15:19:31.775Z,100528.75
2022-07-29T15:22:06.152Z,100525.52
2022-07-29T15:24:42.769Z,100523.17
2022-07-29T15:27:17.811Z,100519.59
2022-07-29T15:29:50.217Z,100521.39
2022-07-29T15:32:22.563Z,100519.01
2022-07-29T15:35:02.697Z,100510.95
2022-07-29T15:37:49.140Z,100513.39
2022-07-29T15:40:22.004Z,100510.34
2022-07-29T15:42:54.975Z,100505.16
2022-07-29T15:45:31.945Z,100505.69
2022-07-29T15:48:06.326Z,100507.73
2022-07-29T15:50:38.614Z,100506.98
2022-07-29T15:53:11.120Z,100505.84
2022-07-29T15:55:44.552Z,100505.62
2022-07-29T15:58:17.206Z,100506.94
2022-07-29T16:00:49.722Z,100508.84
2022-07-29T16:03:22.995Z,100510.16
2022-07-29T16:05:56.067Z,100508.41
2022-07-29T16:08:28.593Z,100508.86
2022-07-29T16:11:01.023Z,100509.81
2022-07-29T16:13:34.709Z,100512.83
2022-07-29T16:16:07.725Z,100511.77
2022-07-29T16:18:40.079Z,100514.95
2022-07-29T16:21:12.362Z,100514.89
2022-07-29T16:23:46.696Z,100516.55
2022-07-29T16:26:19.693Z,100519.86
2022-07-29T16:28:55.166Z,100522.20
2022-07-29T16:31:27.979Z,100521.79
2022-07-29T16:34:00.346Z,100527.02
2022-07-29T16:36:35.036Z,100524.48
2022-07-29T16:39:08.403Z,100529.44
2022-07-29T16:41:40.965Z,100528.14
2022-07-29T16:44:13.409Z,100530.61
2022-07-29T16:46:48.880Z,100530.83
2022-07-29T16:49:24.936Z,100530.41
2022-07-29T16:51:57.981Z,100533.55
2022-07-29T16:54:34.219Z,100535.35
2022-07-29T16:57:07.077Z,100535.58
2022-07-29T16:59:43.513Z,100539.00
2022-07-29T17:02:16.340Z,100536.50
2022-07-29T17:04:49.964Z,100543.18
2022-07-29T17:07:22.502Z,100543.02
2022-07-29T17:09:56.420Z,100543.52
2022-07-29T17:12:32.995Z,100539.80
2022-07-29T17:15:09.315Z,100541.20
2022-07-29T17:17:55.450Z,100540.37
2022-07-29T17:20:29.198Z,100542.91
2022-07-29T17:23:03.994Z,100542.19
2022-07-29T17:25:38.773Z,100545.02
2022-07-29T17:28:11.160Z,100546.04
2022-07-29T17:30:43.520Z,100545.11
2022-07-29T17:33:16.332Z,100546.77
2022-07-29T17:36:08.415Z,100548.52
2022-07-29T17:38:40.862Z,100549.70
2022-07-29T17:41:13.450Z,100549.30
2022-07-29T17:43:46.706Z,100551.38
2022-07-29T17:46:19.846Z,100555.79
2022-07-29T17:48:52.452Z,100555.17
2022-07-29T17:51:26.209Z,100561.34
2022-07-29T17:53:58.686Z,100558.11
2022-07-29T17:56:31.047Z,100560.75
2022-07-29T17:59:06.833Z,100562.81
2022-07-29T18:01:41.563Z,100560.93
2022-07-29T18:04:15.693Z,100562.52
2022-07-29T18:06:48.312Z,100565.13
2022-07-29T18:09:21.153Z,100565.29
2022-07-29T18:11:54.071Z,100570.71
2022-07-29T18:14:27.021Z,100572.08
2022-07-29T18:16:59.851Z,100577.52
2022-07-29T18:19:32.618Z,100581.73
2022-07-29T18:22:05.607Z,100578.81
2022-07-29T18:24:38.688Z,100585.86
2022-07-29T18:27:11.538Z,100586.77
2022-07-29T18:29:43.986Z,100581.95
2022-07-29T18:32:28.964Z,100587.77
2022-07-29T18:35:05.364Z,100596.17
2022-07-29T18:38:01.450Z,100605.66
2022-07-29T18:40:30.418Z,100609.66
2022-07-29T18:43:03.096Z,100615.75
2022-07-29T18:45:36.012Z,100624.48
2022-07-29T18:48:13.199Z,100623.98
2022-07-29T18:50:46.711Z,100632.80
2022-07-29T18:53:19.378Z,100640.29
2022-07-29T18:55:51.995Z,100647.61
2022-07-29T18:58:24.419Z,100652.84
2022-07-29T19:00:57.116Z,100659.72
2022-07-29T19:03:29.699Z,100664.15
2022-07-29T19:06:02.203Z,100668.30
2022-07-29T19:08:34.705Z,100675.75
2022-07-29T19:11:08.060Z,100680.18
2022-07-29T19:13:40.832Z,100684.33
2022-07-29T19:16:14.350Z,100680.73
2022-07-29T19:18:48.067Z,100681.22
2022-07-29T19:21:20.817Z,100684.61
2022-07-29T19:24:00.661Z,100681.91
2022-07-29T19:26:46.822Z,100682.73
2022-07-29T19:29:19.515Z,100689.50
2022-07-29T19:31:52.093Z,100689.15
2022-07-29T19:34:24.925Z,100689.21
2022-07-29T19:36:57.792Z,100692.58
2022-07-29T19:39:34.802Z,100698.73
2022-07-29T19:42:08.536Z,100700.86
2022-07-29T19:44:41.446Z,100700.70
2022-07-29T19:47:17.416Z,100697.37
2022-07-29T19:49:50.568Z,100695.45
2022-07-29T19:52:23.227Z,100702.16
2022-07-29T19:54:56.186Z,100700.65
2022-07-29T19:57:29.294Z,100705.06
2022-07-29T20:00:18.160Z,100704.67
2022-07-29T20:02:53.789Z,100702.16
2022-07-29T20:05:28.550Z,100706.92
2022-07-29T20:10:56.128Z,100711.14
2022-07-29T20:13:28.606Z,100713.63
2022-07-29T20:16:04.304Z,100712.97
2022-07-29T20:18:43.442Z,100713.00
2022-07-29T20:21:15.823Z,100713.26
2022-07-29T20:24:02.566Z,100708.13
2022-07-29T20:26:37.800Z,100707.66
2022-07-29T20:29:11.673Z,100703.48
2022-07-29T20:31:45.773Z,100707.84
2022-07-29T20:34:29.051Z,100712.42
2022-07-29T20:37:03.089Z,100714.38
2022-07-29T20:39:39.705Z,100718.45
2022-07-29T20:42:12.391Z,100724.10
2022-07-29T20:44:51.293Z,100724.63
2022-07-29T20:47:23.825Z,100718.04
2022-07-29T20:50:01.437Z,100721.13
2022-07-29T20:52:33.922Z,100717.20
2022-07-29T20:55:10.516Z,100715.93
2022-07-29T20:57:52.704Z,100718.05
2022-07-29T21:00:29.117Z,100718.09
2022-07-29T21:03:03.108Z,100718.62
2022-07-29T21:05:43.185Z,100718.66
2022-07-29T21:08:19.807Z,100721.80
2022-07-29T21:10:56.600Z,100717.73
2022-07-29T21:13:29.144Z,100725.09
2022-07-29T21:16:06.328Z,100723.11
2022-07-29T21:18:46.586Z,100722.45
2022-07-29T21:21:19.988Z,100723.29
2022-07-29T21:23:53.755Z,100729.05
2022-07-29T21:26:28.416Z,100727.31
2022-07-29T21:29:02.842Z,100721.48
2022-07-29T21:31:35.876Z,100722.55
2022-07-29T21:34:08.455Z,100724.08
2022-07-29T21:36:48.158Z,100728.45
2022-07-29T21:39:24.435Z,100730.34
2022-07-29T21:41:58.457Z,100736.23
2022-07-29T21:44:42.834Z,100733.64
2022-07-29T21:47:15.567Z,100734.36
2022-07-29T21:49:53.317Z,100738.14
2022-07-29T21:52:28.345Z,100740.57
2022-07-29T21:55:01.989Z,100742.63
2022-07-29T21:57:37.361Z,100744.61
2022-07-29T22:00:16.366Z,100747.45
2022-07-29T22:02:51.922Z,100750.51
2022-07-29T22:05:24.424Z,100749.08
2022-07-29T22:07:57.331Z,100752.65
2022-07-29T22:10:32.441Z,100749.66
2022-07-29T22:13:05.547Z,100753.14
2022-07-29T22:15:42.030Z,100756.77
2022-07-29T22:18:20.971Z,100755.95
2022-07-29T22:20:54.395Z,100753.02
2022-07-29T22:23:26.987Z,100750.36
2022-07-29T22:26:00.244Z,100750.02
2022-07-29T22:28:33.306Z,100755.77
2022-07-29T22:31:05.824Z,100755.95
2022-07-29T22:33:38.571Z,100756.33
2022-07-29T22:36:11.353Z,100754.55
2022-07-29T22:38:43.781Z,100756.42
2022-07-29T22:41:16.306Z,100753.36
2022-07-29T22:43:49.131Z,100749.16
2022-07-29T22:46:21.774Z,100748.55
2022-07-29T22:49:00.005Z,100749.17
2022-07-29T22:51:33.816Z,100741.86
2022-07-29T22:54:07.712Z,100738.09
2022-07-29T22:56:40.390Z,100731.86
2022-07-29T22:59:12.970Z,100731.12
2022-07-29T23:01:45.885Z,100726.91
2022-07-29T23:04:23.856Z,100723.67
2022-07-29T23:06:57.058Z,100721.35
2022-07-29T23:09:30.334Z,100722.61
2022-07-29T23:12:02.868Z,100716.66
2022-07-29T23:14:35.445Z,100713.19
2022-07-29T23:17:08.368Z,100714.34
2022-07-29T23:19:41.004Z,100717.47
2022-07-29T23:22:13.809Z,100720.58
2022-07-29T23:24:46.516Z,100714.75
2022-07-29T23:27:18.995Z,100716.61
2022-07-29T23:29:51.487Z,100717.44
2022-07-29T23:32:24.027Z,100717.39
2022-07-29T23:34:56.565Z,100715.59
2022-07-29T23:37:29.205Z,100719.12
2022-07-29T23:40:01.641Z,100719.10
2022-07-29T23:42:34.015Z,100718.36
2022-07-29T23:45:07.852Z,100717.00
2022-07-29T23:47:40.796Z,100716.53
2022-07-29T23:50:46.924Z,100716.69
2022-07-29T23:53:20.117Z,100719.40
2022-07-29T23:55:52.720Z,100721.02
2022-07-29T23:58:25.137Z,100726.15
